Time;durP1;ratioP1;P1;durP2;ratioP2;P2;SDS_P1;SDS_P2;PMS_P1;PMS_P2;Temp;Humidity;BMP_temperature;BMP_pressure;BME280_temperature;BME280_humidity;BME280_pressure;Samples;Min_cycle;Max_cycle;Signal;HPM_P1;HPM_P2
2021/11/28 00:01:09;;;;;;;2.67;2.10;;;20.60;50.00;;;;;;6217014;28;20026;-70
2021/11/28 00:04:10;;;;;;;3.45;2.22;;;20.60;50.00;;;;;;6197502;28;20034;-70
2021/11/28 00:11:00;;;;;;;2.88;2.22;;;20.60;50.10;;;;;;6193997;28;20026;-70
2021/11/28 00:14:06;;;;;;;3.05;2.60;;;20.60;50.10;;;;;;6193555;28;20598;-70
2021/11/28 00:17:09;;;;;;;2.63;2.33;;;20.60;50.00;;;;;;6192222;28;20038;-70
2021/11/28 00:20:13;;;;;;;2.83;2.33;;;20.60;50.10;;;;;;6213469;28;20029;-70
2021/11/28 00:23:14;;;;;;;3.25;2.20;;;20.60;50.10;;;;;;6212908;28;20046;-70
2021/11/28 00:26:15;;;;;;;2.47;1.90;;;20.60;50.10;;;;;;6207766;28;20374;-70
2021/11/28 00:29:16;;;;;;;2.30;2.08;;;20.60;50.00;;;;;;6222618;28;20030;-70
2021/11/28 00:32:17;;;;;;;3.00;2.30;;;20.60;50.00;;;;;;6209300;28;20074;-70
2021/11/28 00:35:18;;;;;;;2.95;2.45;;;20.60;50.10;;;;;;6216295;28;20472;-70
2021/11/28 00:38:18;;;;;;;2.47;2.13;;;20.60;50.10;;;;;;6198188;28;20030;-70
2021/11/28 00:41:19;;;;;;;2.38;2.05;;;20.60;50.70;;;;;;6221021;28;20026;-71
2021/11/28 00:44:20;;;;;;;2.70;2.05;;;20.60;50.00;;;;;;6222555;28;20107;-70
2021/11/28 00:47:21;;;;;;;3.35;2.50;;;20.60;50.00;;;;;;6213821;28;20133;-70
2021/11/28 00:53:22;;;;;;;2.28;2.08;;;20.60;50.00;;;;;;6213624;28;20026;-70
2021/11/28 00:56:23;;;;;;;2.80;2.20;;;20.60;50.10;;;;;;6220394;28;20475;-70
2021/11/28 00:59:23;;;;;;;3.08;2.38;;;20.60;50.00;;;;;;6221622;28;20053;-69
2021/11/28 01:02:24;;;;;;;2.83;2.30;;;20.60;50.10;;;;;;6221799;28;20057;-70
2021/11/28 01:05:25;;;;;;;2.72;2.13;;;20.60;50.10;;;;;;6220631;28;20034;-70
2021/11/28 01:08:25;;;;;;;2.28;2.05;;;20.60;50.00;;;;;;6208401;28;20058;-70
2021/11/28 01:11:26;;;;;;;2.50;2.17;;;20.60;50.10;;;;;;6196139;28;20015;-70
2021/11/28 01:14:27;;;;;;;2.40;2.00;;;20.60;50.00;;;;;;6204476;28;20112;-70
2021/11/28 01:17:30;;;;;;;2.35;2.03;;;20.60;50.10;;;;;;6196790;28;20423;-71
2021/11/28 01:20:30;;;;;;;2.60;2.00;;;20.60;50.00;;;;;;6202637;28;20125;-70
2021/11/28 01:23:32;;;;;;;3.38;2.47;;;20.60;50.10;;;;;;6221382;28;20048;-71
2021/11/28 01:26:33;;;;;;;2.83;2.33;;;20.60;50.10;;;;;;6210141;28;20526;-70
2021/11/28 01:29:33;;;;;;;2.50;2.00;;;20.60;50.10;;;;;;6221126;28;20026;-70
2021/11/28 01:32:36;;;;;;;2.53;1.90;;;20.60;50.00;;;;;;6209117;28;20487;-70
2021/11/28 01:35:36;;;;;;;2.42;2.00;;;20.60;50.10;;;;;;6219882;28;20066;-70
2021/11/28 01:38:37;;;;;;;2.53;2.22;;;20.60;50.10;;;;;;6220066;28;20026;-70
2021/11/28 01:41:38;;;;;;;2.80;2.25;;;20.60;50.00;;;;;;6217988;28;20034;-70
2021/11/28 01:44:39;;;;;;;2.28;1.90;;;20.60;50.00;;;;;;6195612;28;20657;-70
2021/11/28 01:47:40;;;;;;;3.30;2.35;;;20.60;50.10;;;;;;6196634;28;20061;-70
2021/11/28 01:50:43;;;;;;;2.80;2.00;;;20.60;50.10;;;;;;6196568;28;20037;-70
2021/11/28 01:53:45;;;;;;;2.30;1.90;;;20.60;50.10;;;;;;6215154;28;20037;-70
2021/11/28 01:56:49;;;;;;;3.05;2.30;;;20.60;50.10;;;;;;6219583;28;20487;-70
2021/11/28 01:59:50;;;;;;;2.30;1.80;;;20.60;50.10;;;;;;6219330;28;20488;-70
2021/11/28 02:02:52;;;;;;;2.53;1.90;;;20.60;50.00;;;;;;6220850;28;20077;-70
2021/11/28 02:05:56;;;;;;;2.45;1.92;;;20.60;50.10;;;;;;6221120;28;20084;-70
2021/11/28 02:08:57;;;;;;;2.55;2.20;;;20.60;50.10;;;;;;6220200;28;20026;-70
2021/11/28 02:11:57;;;;;;;2.47;1.80;;;20.60;50.10;;;;;;6220658;28;20715;-70
2021/11/28 02:15:00;;;;;;;1.70;1.52;;;20.60;50.10;;;;;;6202050;28;20239;-70
2021/11/28 02:18:02;;;;;;;2.78;2.03;;;20.60;50.10;;;;;;6196138;28;20442;-70
2021/11/28 02:21:04;;;;;;;2.28;1.90;;;20.60;50.10;;;;;;6194271;28;20038;-70
2021/11/28 02:24:05;;;;;;;2.35;2.00;;;20.60;50.10;;;;;;6207970;28;20113;-70
2021/11/28 02:27:06;;;;;;;2.40;2.00;;;20.60;50.10;;;;;;6208996;28;20032;-70
2021/11/28 02:30:08;;;;;;;2.58;2.00;;;20.60;50.10;;;;;;6215963;28;20508;-70
2021/11/28 02:33:09;;;;;;;2.72;2.22;;;20.60;50.10;;;;;;6227797;28;20041;-70
2021/11/28 02:36:10;;;;;;;2.10;1.70;;;20.60;50.10;;;;;;6219829;28;20089;-70
2021/11/28 02:39:11;;;;;;;3.00;1.88;;;20.60;50.10;;;;;;6219683;28;20041;-70
2021/11/28 02:42:11;;;;;;;2.40;1.85;;;20.60;50.90;;;;;;6218465;28;20566;-71
2021/11/28 02:45:13;;;;;;;2.67;2.00;;;20.60;50.10;;;;;;6219948;28;20033;-70
2021/11/28 02:48:16;;;;;;;2.45;1.90;;;20.60;50.10;;;;;;6219296;28;20032;-70
2021/11/28 02:51:16;;;;;;;2.28;1.60;;;20.60;50.20;;;;;;6218664;28;20109;-70
2021/11/28 02:54:17;;;;;;;2.13;1.65;;;20.60;50.20;;;;;;6219448;28;20361;-70
2021/11/28 02:57:18;;;;;;;2.95;1.92;;;20.60;50.20;;;;;;6213470;28;20035;-70
2021/11/28 03:00:19;;;;;;;2.30;1.85;;;20.60;50.20;;;;;;6195286;28;20472;-70
2021/11/28 03:03:20;;;;;;;2.55;1.92;;;20.60;50.20;;;;;;6208502;28;20431;-70
2021/11/28 03:06:21;;;;;;;2.58;2.05;;;20.60;50.20;;;;;;6217503;28;20088;-70
2021/11/28 03:09:22;;;;;;;2.17;1.95;;;20.60;50.10;;;;;;6211873;28;20041;-70
2021/11/28 03:12:23;;;;;;;1.60;1.38;;;20.60;50.10;;;;;;6230544;28;20412;-70
2021/11/28 03:15:24;;;;;;;2.30;1.90;;;20.60;50.10;;;;;;6197705;28;20459;-70
2021/11/28 03:18:27;;;;;;;2.10;1.80;;;20.60;50.20;;;;;;6203550;28;20080;-70
2021/11/28 03:21:32;;;;;;;1.70;1.60;;;20.50;50.10;;;;;;6219272;28;20022;-70
2021/11/28 03:24:33;;;;;;;2.33;1.80;;;20.60;50.20;;;;;;6218648;28;20037;-70
2021/11/28 03:27:34;;;;;;;2.08;1.60;;;20.50;50.10;;;;;;6218840;28;20072;-70
2021/11/28 03:30:34;;;;;;;2.55;1.80;;;20.50;50.10;;;;;;6210698;28;20097;-70
2021/11/28 03:33:39;;;;;;;2.97;2.10;;;20.60;50.20;;;;;;6229830;28;20021;-70
2021/11/28 03:36:53;;;;;;;2.00;1.55;;;20.60;50.10;;;;;;6199725;28;20092;-70
2021/11/28 03:39:54;;;;;;;1.92;1.67;;;20.60;50.20;;;;;;6218622;28;20116;-70
2021/11/28 03:42:55;;;;;;;2.05;1.80;;;20.60;50.20;;;;;;6204750;28;20038;-71
2021/11/28 03:45:56;;;;;;;3.03;1.75;;;20.60;50.20;;;;;;6194508;28;20536;-70
2021/11/28 03:48:59;;;;;;;2.42;1.88;;;20.50;50.10;;;;;;6213423;28;20029;-70
2021/11/28 03:51:59;;;;;;;2.13;1.60;;;20.50;50.10;;;;;;6212115;28;20041;-70
2021/11/28 03:55:00;;;;;;;2.45;1.90;;;20.50;50.10;;;;;;6217127;28;20040;-70
2021/11/28 03:58:01;;;;;;;2.47;1.98;;;20.60;50.20;;;;;;6217578;28;20149;-70
2021/11/28 04:01:05;;;;;;;2.08;1.63;;;20.50;50.20;;;;;;6218283;28;20106;-70
2021/11/28 04:04:05;;;;;;;2.28;1.73;;;20.50;50.10;;;;;;6198263;28;20030;-70
2021/11/28 04:07:06;;;;;;;2.20;1.70;;;20.50;50.10;;;;;;6194342;28;20447;-70
2021/11/28 04:10:08;;;;;;;1.75;1.50;;;20.50;50.10;;;;;;6217808;28;20161;-70
2021/11/28 04:13:08;;;;;;;2.00;1.50;;;20.50;50.10;;;;;;6212479;28;20022;-70
2021/11/28 04:16:11;;;;;;;2.17;1.73;;;20.50;50.10;;;;;;6193226;28;20068;-70
2021/11/28 04:19:12;;;;;;;1.65;1.50;;;20.50;50.20;;;;;;6208795;28;20037;-70
2021/11/28 04:22:12;;;;;;;2.20;1.70;;;20.50;50.20;;;;;;6217897;28;20033;-70
2021/11/28 04:25:14;;;;;;;1.98;1.42;;;20.60;50.30;;;;;;6193876;28;20113;-70
2021/11/28 04:28:15;;;;;;;1.50;1.30;;;20.50;50.20;;;;;;6211520;28;20084;-70
2021/11/28 04:31:16;;;;;;;2.20;1.73;;;20.50;50.10;;;;;;6205608;28;21280;-70
2021/11/28 04:34:17;;;;;;;1.98;1.73;;;20.50;50.10;;;;;;6217582;28;20038;-70
2021/11/28 04:37:18;;;;;;;1.75;1.48;;;20.60;50.20;;;;;;6217671;28;20040;-70
2021/11/28 04:40:19;;;;;;;2.03;1.60;;;20.50;50.10;;;;;;6217340;28;20644;-70
2021/11/28 04:43:19;;;;;;;2.15;1.77;;;20.50;50.20;;;;;;6216295;28;20025;-70
2021/11/28 04:46:20;;;;;;;2.08;1.48;;;20.50;50.20;;;;;;6215932;28;20030;-70
2021/11/28 04:49:21;;;;;;;2.55;1.98;;;20.50;50.20;;;;;;6208051;28;20061;-70
2021/11/28 04:52:22;;;;;;;1.83;1.30;;;20.50;50.20;;;;;;6200454;28;20104;-70
2021/11/28 04:55:22;;;;;;;1.95;1.63;;;20.50;50.20;;;;;;6217681;28;20026;-71
2021/11/28 04:58:23;;;;;;;1.98;1.73;;;20.50;50.20;;;;;;6202129;28;20022;-70
2021/11/28 05:01:24;;;;;;;1.80;1.38;;;20.50;50.20;;;;;;6191540;28;20038;-70
2021/11/28 05:04:25;;;;;;;1.63;1.50;;;20.60;50.30;;;;;;6215290;28;20509;-71
2021/11/28 05:07:26;;;;;;;2.80;1.88;;;20.50;50.20;;;;;;6180009;28;20026;-70
2021/11/28 05:10:27;;;;;;;2.22;1.80;;;20.50;50.20;;;;;;6232128;28;20033;-70
2021/11/28 05:13:27;;;;;;;1.73;1.40;;;20.50;50.20;;;;;;6212834;28;20035;-69
2021/11/28 05:16:28;;;;;;;1.77;1.50;;;20.60;50.30;;;;;;6197201;28;20030;-70
2021/11/28 05:19:29;;;;;;;1.75;1.40;;;20.50;50.20;;;;;;6233131;28;20431;-70
2021/11/28 05:22:31;;;;;;;2.25;1.70;;;20.50;50.10;;;;;;6220278;28;20682;-70
2021/11/28 05:25:32;;;;;;;1.60;1.38;;;20.60;50.20;;;;;;6213772;28;20116;-70
2021/11/28 05:28:32;;;;;;;2.08;1.40;;;20.60;50.10;;;;;;6195228;28;20032;-70
2021/11/28 05:31:33;;;;;;;1.60;1.20;;;20.50;49.80;;;;;;6215911;28;20033;-70
2021/11/28 05:34:34;;;;;;;1.10;1.00;;;20.60;49.90;;;;;;6236596;28;20114;-70
2021/11/28 05:37:35;;;;;;;2.10;1.40;;;20.60;49.90;;;;;;6221345;28;20033;-70
2021/11/28 05:40:37;;;;;;;1.75;1.23;;;20.60;49.80;;;;;;6222343;28;20072;-70
2021/11/28 05:43:38;;;;;;;1.67;1.40;;;20.60;49.80;;;;;;6200511;28;20034;-70
2021/11/28 05:46:39;;;;;;;1.77;1.20;;;20.60;49.70;;;;;;6199827;28;20022;-70
2021/11/28 05:49:40;;;;;;;1.20;1.05;;;20.60;49.70;;;;;;6219273;28;20143;-70
2021/11/28 05:52:42;;;;;;;1.67;1.40;;;20.60;49.80;;;;;;6221191;28;20081;-71
2021/11/28 05:55:42;;;;;;;2.20;1.40;;;20.60;49.70;;;;;;6219605;28;20505;-70
2021/11/28 05:58:44;;;;;;;1.38;1.27;;;20.60;49.60;;;;;;6220820;28;20037;-70
2021/11/28 06:01:44;;;;;;;1.52;1.35;;;20.60;49.70;;;;;;6205759;28;20528;-70
2021/11/28 06:04:45;;;;;;;1.83;1.42;;;20.60;49.60;;;;;;6220949;28;20064;-72
2021/11/28 06:07:46;;;;;;;1.83;1.48;;;20.60;49.70;;;;;;6217218;28;20034;-70
2021/11/28 06:10:47;;;;;;;1.55;1.30;;;20.60;49.60;;;;;;6196883;28;20408;-70
2021/11/28 06:13:47;;;;;;;1.58;1.20;;;20.60;49.60;;;;;;6198706;28;20042;-71
2021/11/28 06:16:48;;;;;;;2.03;1.40;;;20.60;49.70;;;;;;6208080;28;20479;-70
2021/11/28 06:19:49;;;;;;;1.70;1.38;;;20.60;49.70;;;;;;6214445;28;20399;-70
2021/11/28 06:22:52;;;;;;;1.50;1.13;;;20.60;49.60;;;;;;6218807;28;20026;-71
2021/11/28 06:25:53;;;;;;;2.20;1.60;;;20.60;49.60;;;;;;6220190;28;20487;-70
2021/11/28 06:28:53;;;;;;;1.33;1.20;;;20.60;49.60;;;;;;6220046;28;20301;-70
2021/11/28 06:31:54;;;;;;;1.63;1.20;;;20.60;49.70;;;;;;6206466;28;20030;-70
2021/11/28 06:34:55;;;;;;;1.60;1.30;;;20.60;49.60;;;;;;6218916;28;20084;-70
2021/11/28 06:37:55;;;;;;;1.45;1.23;;;20.60;49.70;;;;;;6220700;28;20053;-70
2021/11/28 06:40:56;;;;;;;1.30;1.20;;;20.60;49.60;;;;;;6196221;28;20028;-70
2021/11/28 06:43:57;;;;;;;1.48;1.35;;;20.60;49.70;;;;;;6217808;28;20435;-70
2021/11/28 06:46:58;;;;;;;1.88;1.52;;;20.60;49.70;;;;;;6218414;28;20049;-70
2021/11/28 06:49:59;;;;;;;1.20;1.10;;;20.60;49.70;;;;;;6218667;28;20205;-70
2021/11/28 06:53:03;;;;;;;1.48;1.33;;;20.60;49.70;;;;;;6218670;28;20507;-70
2021/11/28 06:56:04;;;;;;;1.60;1.30;;;20.60;49.70;;;;;;6234796;28;20034;-70
2021/11/28 06:59:05;;;;;;;1.60;1.10;;;20.60;49.70;;;;;;6199348;28;20034;-70
2021/11/28 07:02:06;;;;;;;1.25;1.15;;;20.60;49.60;;;;;;6197291;28;20514;-70
2021/11/28 07:05:07;;;;;;;1.65;1.35;;;20.60;50.40;;;;;;6219694;28;20030;-70
2021/11/28 07:08:07;;;;;;;1.55;1.17;;;20.60;49.70;;;;;;6209023;28;20032;-70
2021/11/28 07:11:08;;;;;;;1.92;1.27;;;20.60;49.70;;;;;;6194865;28;20026;-70
2021/11/28 07:14:09;;;;;;;1.58;1.20;;;20.60;49.80;;;;;;6197913;28;20056;-70
2021/11/28 07:17:09;;;;;;;1.20;1.10;;;20.60;49.70;;;;;;6193645;28;20420;-70
2021/11/28 07:20:10;;;;;;;1.20;1.10;;;20.60;49.70;;;;;;6217081;28;20080;-70
2021/11/28 07:23:11;;;;;;;1.30;1.20;;;20.60;49.70;;;;;;6218925;28;20357;-70
2021/11/28 07:26:13;;;;;;;1.23;1.13;;;20.60;49.70;;;;;;6217450;28;20030;-70
2021/11/28 07:29:14;;;;;;;1.60;1.08;;;20.60;49.70;;;;;;6218729;28;20026;-70
2021/11/28 07:32:14;;;;;;;1.40;1.10;;;20.60;49.80;;;;;;6206437;28;20113;-70
2021/11/28 07:35:15;;;;;;;1.55;1.25;;;20.60;49.70;;;;;;6218690;28;20422;-70
2021/11/28 07:38:16;;;;;;;1.42;1.00;;;20.60;49.70;;;;;;6218123;28;20049;-70
2021/11/28 07:41:16;;;;;;;1.27;1.10;;;20.60;49.70;;;;;;6218379;28;20060;-71
2021/11/28 07:44:17;;;;;;;1.10;1.00;;;20.60;49.70;;;;;;6192767;28;20030;-70
2021/11/28 07:47:18;;;;;;;1.90;1.35;;;20.60;49.70;;;;;;6200638;28;20117;-70
2021/11/28 07:50:19;;;;;;;1.35;1.20;;;20.60;49.70;;;;;;6218453;28;20063;-69
2021/11/28 07:53:20;;;;;;;1.10;0.98;;;20.60;49.70;;;;;;6202105;28;20026;-69
2021/11/28 07:56:22;;;;;;;7.53;1.30;;;20.60;49.60;;;;;;6194532;28;20108;-69
2021/11/28 07:59:22;;;;;;;19.77;1.83;;;20.60;50.00;;;;;;6216014;28;20022;-68
2021/11/28 08:02:23;;;;;;;14.70;1.70;;;20.60;51.60;;;;;;6212563;28;20522;-68
2021/11/28 08:05:24;;;;;;;6.47;2.88;;;20.60;49.60;;;;;;6198111;28;20034;-68
2021/11/28 08:08:32;;;;;;;6.40;2.92;;;20.60;48.50;;;;;;6217795;28;20439;-69
2021/11/28 08:11:32;;;;;;;8.90;2.95;;;20.60;47.50;;;;;;6218252;28;20105;-70
2021/11/28 08:14:35;;;;;;;7.00;2.80;;;20.60;46.90;;;;;;6216527;28;20450;-69
2021/11/28 08:17:38;;;;;;;5.10;2.33;;;20.50;46.90;;;;;;6217501;28;20025;-69
2021/11/28 08:20:39;;;;;;;4.97;2.42;;;20.50;46.50;;;;;;6217796;28;20025;-69
2021/11/28 08:23:39;;;;;;;4.43;2.10;;;20.50;46.10;;;;;;6218118;28;20105;-70
2021/11/28 08:26:40;;;;;;;4.18;2.00;;;20.50;45.90;;;;;;6206678;28;20026;-69
2021/11/28 08:29:41;;;;;;;2.58;1.80;;;20.50;45.60;;;;;;6216464;28;20038;-69
2021/11/28 08:32:44;;;;;;;2.60;1.60;;;20.50;45.70;;;;;;6193254;28;20480;-70
2021/11/28 08:35:45;;;;;;;2.42;1.70;;;20.50;45.60;;;;;;6191980;28;20113;-70
2021/11/28 08:38:50;;;;;;;3.30;1.55;;;20.50;45.80;;;;;;6214544;28;20503;-70
2021/11/28 08:41:51;;;;;;;;;;;20.50;45.80;;;;;;6218233;28;20037;-70
2021/11/28 08:44:52;;;;;;;2.15;1.48;;;20.50;46.00;;;;;;6217683;28;20310;-70
2021/11/28 08:47:53;;;;;;;3.08;1.50;;;20.50;46.00;;;;;;6217402;28;20034;-70
2021/11/28 08:50:53;;;;;;;1.65;1.42;;;20.50;46.20;;;;;;6222177;28;20030;-70
2021/11/28 08:53:56;;;;;;;1.52;1.30;;;20.50;46.50;;;;;;6222827;28;20525;-69
2021/11/28 08:56:59;;;;;;;2.30;1.40;;;20.50;46.40;;;;;;6220765;28;20234;-69
2021/11/28 09:00:01;;;;;;;2.30;1.25;;;20.50;46.70;;;;;;6222319;28;20079;-70
2021/11/28 09:03:01;;;;;;;2.10;1.52;;;20.50;46.60;;;;;;6221900;28;20057;-71
2021/11/28 09:06:02;;;;;;;1.55;1.00;;;20.50;46.70;;;;;;6237265;28;20026;-69
2021/11/28 09:09:04;;;;;;;2.10;1.30;;;20.50;46.80;;;;;;6220295;28;20029;-69
2021/11/28 09:12:06;;;;;;;4.50;1.58;;;20.60;47.00;;;;;;6220947;28;20030;-70
2021/11/28 09:15:07;;;;;;;1.40;1.00;;;20.50;46.90;;;;;;6205280;28;20559;-70
2021/11/28 09:18:14;;;;;;;1.70;1.20;;;20.50;47.00;;;;;;6212224;28;20031;-70
2021/11/28 09:21:16;;;;;;;1.27;1.08;;;20.50;47.00;;;;;;6196420;28;20045;-70
2021/11/28 09:24:35;;;;;;;2.17;1.27;;;20.50;47.00;;;;;;6212690;28;20100;-69
2021/11/28 09:27:41;;;;;;;3.00;1.40;;;20.60;47.20;;;;;;6210805;28;20021;-69
2021/11/28 09:30:42;;;;;;;1.80;1.08;;;20.60;47.30;;;;;;6203059;28;20030;-70
2021/11/28 09:33:42;;;;;;;2.20;1.23;;;20.60;47.30;;;;;;6195295;28;20026;-71
2021/11/28 09:36:43;;;;;;;2.38;1.48;;;20.60;47.40;;;;;;6201821;28;20022;-69
2021/11/28 09:39:45;;;;;;;2.38;1.27;;;20.60;47.50;;;;;;6221429;28;20045;-69
2021/11/28 09:42:55;;;;;;;2.10;1.40;;;20.60;47.60;;;;;;6221624;28;20026;-69
2021/11/28 09:45:57;;;;;;;1.80;1.17;;;20.60;47.70;;;;;;6219966;28;20120;-70
2021/11/28 09:49:01;;;;;;;1.48;1.10;;;20.60;47.70;;;;;;6220687;28;20030;-70
2021/11/28 09:52:06;;;;;;;1.90;1.27;;;20.60;47.90;;;;;;6216259;28;20026;-69
2021/11/28 09:55:10;;;;;;;1.35;0.98;;;20.60;47.90;;;;;;6197076;28;20524;-69
2021/11/28 09:58:12;;;;;;;1.47;1.10;;;20.60;48.00;;;;;;6209573;28;20037;-70
2021/11/28 10:01:13;;;;;;;1.60;1.10;;;20.60;48.10;;;;;;6220681;28;20014;-69
2021/11/28 10:04:13;;;;;;;1.45;1.10;;;20.60;48.10;;;;;;6200034;28;20065;-69
2021/11/28 10:07:15;;;;;;;1.55;1.13;;;20.60;48.10;;;;;;6198438;28;20679;-69
2021/11/28 10:10:19;;;;;;;1.17;0.90;;;20.60;48.20;;;;;;6220493;28;20380;-70
2021/11/28 10:13:19;;;;;;;2.33;1.38;;;20.60;48.20;;;;;;6210446;28;20034;-69
2021/11/28 10:16:21;;;;;;;2.00;1.30;;;20.60;48.30;;;;;;6213065;28;20219;-69
2021/11/28 10:19:21;;;;;;;1.58;1.10;;;20.60;48.30;;;;;;6219058;28;20534;-69
2021/11/28 10:22:23;;;;;;;1.42;1.00;;;20.60;48.30;;;;;;6220312;28;20042;-71
2021/11/28 10:25:28;;;;;;;1.80;1.10;;;20.60;48.30;;;;;;6213674;28;20080;-70
2021/11/28 10:28:29;;;;;;;1.95;1.13;;;20.60;48.40;;;;;;6215815;28;20041;-70
2021/11/28 10:31:29;;;;;;;1.85;1.00;;;20.60;48.50;;;;;;6208216;28;20040;-70
2021/11/28 10:34:47;;;;;;;1.55;1.27;;;20.60;48.50;;;;;;6220457;28;20372;-71
2021/11/28 10:37:51;;;;;;;1.25;1.00;;;20.60;48.50;;;;;;6206551;28;20097;-69
2021/11/28 10:40:52;;;;;;;1.55;1.02;;;20.60;48.50;;;;;;6196068;28;20555;-69
2021/11/28 10:43:53;;;;;;;1.00;0.90;;;20.60;48.50;;;;;;6216573;28;20030;-69
2021/11/28 10:47:12;;;;;;;1.70;0.98;;;20.60;48.60;;;;;;6215208;28;20045;-71
2021/11/28 10:50:26;;;;;;;1.10;0.98;;;20.60;48.60;;;;;;6195525;28;20045;-69
2021/11/28 10:53:26;;;;;;;1.63;1.33;;;20.60;48.60;;;;;;6226374;28;20026;-70
2021/11/28 10:56:27;;;;;;;2.55;1.00;;;20.60;48.70;;;;;;6218341;28;20022;-70
2021/11/28 10:59:28;;;;;;;1.05;0.88;;;20.60;48.70;;;;;;6195613;28;20037;-71
2021/11/28 11:02:30;;;;;;;1.10;1.00;;;20.60;48.80;;;;;;6200240;28;20030;-69
2021/11/28 11:05:31;;;;;;;1.65;1.15;;;20.70;48.90;;;;;;6219527;28;20050;-70
2021/11/28 11:08:31;;;;;;;0.95;0.88;;;20.60;48.80;;;;;;6207249;28;20059;-69
2021/11/28 11:11:36;;;;;;;1.27;0.80;;;20.70;48.80;;;;;;6194267;28;20132;-69
2021/11/28 11:14:43;;;;;;;1.10;1.00;;;20.60;48.80;;;;;;6199248;28;20523;-70
2021/11/28 11:17:58;;;;;;;1.00;0.90;;;20.60;48.80;;;;;;6213088;28;20052;-69
2021/11/28 11:21:04;;;;;;;1.50;0.98;;;20.70;49.00;;;;;;6219797;28;20458;-70
2021/11/28 11:24:23;;;;;;;2.08;1.00;;;20.60;48.90;;;;;;6218900;28;20030;-70
2021/11/28 11:27:33;;;;;;;1.40;0.90;;;20.60;48.90;;;;;;6195277;28;20026;-73
2021/11/28 11:30:34;;;;;;;1.73;1.17;;;20.60;48.90;;;;;;6185175;28;20039;-69
2021/11/28 11:33:35;;;;;;;1.52;1.10;;;20.60;48.90;;;;;;6189804;28;20026;-71
2021/11/28 11:36:55;;;;;;;1.13;0.98;;;20.70;49.00;;;;;;6212662;28;20036;-70
2021/11/28 11:39:57;;;;;;;1.98;1.10;;;20.60;48.90;;;;;;6218642;28;20026;-71
2021/11/28 11:42:58;;;;;;;1.40;0.82;;;20.60;48.90;;;;;;6218352;28;20022;-69
2021/11/28 11:46:04;;;;;;;1.85;1.10;;;20.70;49.00;;;;;;6218546;28;20032;-69
2021/11/28 11:49:05;;;;;;;2.00;1.27;;;20.60;49.00;;;;;;6216617;28;20022;-70
2021/11/28 11:52:07;;;;;;;1.52;1.00;;;20.70;49.00;;;;;;6213715;28;20400;-69
2021/11/28 11:55:18;;;;;;;1.77;1.00;;;20.70;49.10;;;;;;6193927;28;20486;-69
2021/11/28 11:58:30;;;;;;;1.23;1.02;;;20.70;49.00;;;;;;6206272;28;20104;-71
2021/11/28 12:01:31;;;;;;;1.30;0.95;;;20.70;49.00;;;;;;6218125;28;20080;-70
2021/11/28 12:04:45;;;;;;;2.03;1.20;;;20.70;49.00;;;;;;6216911;28;20025;-69
2021/11/28 12:07:51;;;;;;;0.93;0.82;;;20.70;49.00;;;;;;6217488;28;20089;-69
2021/11/28 12:10:56;;;;;;;1.85;1.00;;;20.70;49.00;;;;;;6217614;28;20018;-70
2021/11/28 12:13:59;;;;;;;1.20;0.82;;;20.70;49.00;;;;;;6202847;28;20080;-70
2021/11/28 12:17:00;;;;;;;1.95;1.00;;;20.70;49.00;;;;;;6193292;28;20025;-70
2021/11/28 12:20:01;;;;;;;1.23;1.00;;;20.70;49.00;;;;;;6215135;28;20041;-70
2021/11/28 12:23:02;;;;;;;0.88;0.73;;;20.70;48.90;;;;;;6220027;28;20376;-70
2021/11/28 12:26:03;;;;;;;0.93;0.75;;;20.70;49.60;;;;;;6222434;28;20432;-69
2021/11/28 12:29:15;;;;;;;1.40;0.90;;;20.70;49.00;;;;;;6222797;28;20022;-69
2021/11/28 12:32:22;;;;;;;1.55;1.10;;;20.70;48.90;;;;;;6210515;28;20472;-69
2021/11/28 12:35:43;;;;;;;1.88;1.15;;;20.70;49.00;;;;;;6222839;28;20148;-70
2021/11/28 12:38:49;;;;;;;1.13;0.90;;;20.70;48.90;;;;;;6201531;28;20034;-69
2021/11/28 12:42:03;;;;;;;1.88;1.05;;;20.70;48.90;;;;;;6203128;28;20076;-69
2021/11/28 12:45:04;;;;;;;3.47;1.00;;;20.70;48.90;;;;;;6222432;28;20026;-70
2021/11/28 12:48:09;;;;;;;1.52;1.10;;;20.70;48.90;;;;;;6208159;28;20034;-69
2021/11/28 12:51:10;;;;;;;1.10;0.85;;;20.70;49.00;;;;;;6198278;28;20107;-70
2021/11/28 12:54:27;;;;;;;1.92;0.95;;;20.70;48.90;;;;;;6200118;28;20030;-70
2021/11/28 12:57:27;;;;;;;1.30;0.90;;;20.70;48.90;;;;;;6205163;28;20029;-69
2021/11/28 13:00:38;;;;;;;1.05;0.73;;;20.70;48.90;;;;;;6222625;28;20026;-70
2021/11/28 13:03:39;;;;;;;1.60;1.00;;;20.70;48.90;;;;;;6222313;28;20033;-69
2021/11/28 13:06:40;;;;;;;1.08;0.98;;;20.70;48.80;;;;;;6220527;28;20153;-69
2021/11/28 13:09:40;;;;;;;1.15;0.90;;;20.70;48.90;;;;;;6221929;28;20104;-70
2021/11/28 13:12:43;;;;;;;0.85;0.82;;;20.70;48.90;;;;;;6221749;28;20025;-69
2021/11/28 13:16:13;;;;;;;1.73;0.98;;;20.70;48.90;;;;;;6197733;28;20054;-70
2021/11/28 13:19:14;;;;;;;1.20;1.00;;;20.70;48.90;;;;;;6213359;28;20262;-71
2021/11/28 13:22:16;;;;;;;1.40;0.90;;;20.70;48.90;;;;;;6221794;28;20034;-69
2021/11/28 13:25:49;;;;;;;1.40;0.88;;;20.70;48.90;;;;;;6216900;28;20014;-69
2021/11/28 13:28:51;;;;;;;1.35;0.90;;;20.70;49.00;;;;;;6218848;28;20033;-70
2021/11/28 13:31:59;;;;;;;1.52;0.82;;;20.70;48.90;;;;;;6209242;28;20064;-69
2021/11/28 13:35:10;;;;;;;1.40;0.90;;;20.70;48.90;;;;;;6222085;28;20088;-69
2021/11/28 13:38:32;;;;;;;1.17;0.77;;;20.70;49.00;;;;;;6220972;28;20038;-69
2021/11/28 13:41:33;;;;;;;1.52;0.93;;;20.70;48.90;;;;;;6212882;28;20035;-68
2021/11/28 13:44:33;;;;;;;1.67;0.95;;;20.70;48.90;;;;;;6193873;28;20031;-69
2021/11/28 13:47:34;;;;;;;16.05;1.50;;;20.70;49.30;;;;;;6200689;28;20506;-71
2021/11/28 13:50:35;;;;;;;10.82;1.67;;;20.70;48.20;;;;;;6196796;28;20030;-69
2021/11/28 13:53:53;;;;;;;10.65;1.35;;;20.80;47.80;;;;;;6200235;28;20023;-69
2021/11/28 13:57:10;;;;;;;11.00;1.58;;;20.80;47.70;;;;;;6193471;28;20041;-70
2021/11/28 14:00:11;;;;;;;12.27;1.77;;;20.80;47.40;;;;;;6196354;28;20137;-69
2021/11/28 14:03:12;;;;;;;12.02;1.50;;;20.80;47.50;;;;;;6209817;28;20022;-69
2021/11/28 14:06:13;;;;;;;7.63;1.38;;;20.80;47.90;;;;;;6221200;28;20058;-69
2021/11/28 14:09:14;;;;;;;5.30;1.35;;;20.80;48.20;;;;;;6219998;28;20026;-69
2021/11/28 14:12:23;;;;;;;12.10;2.08;;;20.80;48.40;;;;;;6219294;28;20018;-70
2021/11/28 14:15:28;;;;;;;8.27;1.77;;;20.80;48.30;;;;;;6196068;28;20128;-69
2021/11/28 14:18:41;;;;;;;7.00;1.60;;;20.80;48.40;;;;;;6206575;28;20521;-69
2021/11/28 14:21:42;;;;;;;4.65;1.58;;;20.70;48.30;;;;;;6220575;28;20113;-69
2021/11/28 14:24:42;;;;;;;9.38;1.23;;;20.70;48.30;;;;;;6218710;28;20030;-69
2021/11/28 14:28:03;;;;;;;5.93;1.27;;;20.70;48.50;;;;;;6196591;28;20026;-70
2021/11/28 14:31:07;;;;;;;7.13;1.35;;;20.70;48.50;;;;;;6195611;28;20077;-70
2021/11/28 14:34:08;;;;;;;1.98;1.10;;;20.70;48.50;;;;;;6219934;28;20053;-70
2021/11/28 14:37:18;;;;;;;7.85;1.27;;;20.70;48.50;;;;;;6226905;28;20146;-70
2021/11/28 14:40:19;;;;;;;3.72;1.20;;;20.70;48.50;;;;;;6195846;28;20026;-71
2021/11/28 14:43:20;;;;;;;3.47;0.95;;;20.70;48.50;;;;;;6197668;28;20069;-71
2021/11/28 14:46:27;;;;;;;2.90;1.13;;;20.70;48.60;;;;;;6197125;28;20038;-71
2021/11/28 14:49:29;;;;;;;2.78;1.15;;;20.80;48.60;;;;;;6212547;28;20061;-71
2021/11/28 14:52:36;;;;;;;2.67;1.20;;;20.70;49.20;;;;;;6197579;28;20026;-71
2021/11/28 14:55:41;;;;;;;3.92;1.20;;;20.70;48.60;;;;;;6197349;28;20472;-71
2021/11/28 14:58:44;;;;;;;4.10;1.42;;;20.70;48.70;;;;;;6196081;28;20116;-71
2021/11/28 15:01:45;;;;;;;2.33;1.02;;;20.70;48.70;;;;;;6195586;28;20500;-70
2021/11/28 15:04:49;;;;;;;2.42;1.20;;;20.70;48.70;;;;;;6197280;28;20023;-71
2021/11/28 15:07:50;;;;;;;2.85;1.05;;;20.70;48.70;;;;;;6197025;28;20404;-71
2021/11/28 15:10:55;;;;;;;4.00;1.35;;;20.70;48.70;;;;;;6196377;28;20219;-70
2021/11/28 15:14:01;;;;;;;2.13;0.80;;;20.70;48.70;;;;;;6181946;28;20126;-69
2021/11/28 15:17:02;;;;;;;4.60;1.45;;;20.70;48.90;;;;;;6209744;28;20069;-70
2021/11/28 15:20:06;;;;;;;7.80;1.52;;;20.70;48.70;;;;;;6199927;28;20038;-70
2021/11/28 15:23:08;;;;;;;4.55;1.73;;;20.60;48.30;;;;;;6200612;28;20158;-69
2021/11/28 15:26:08;;;;;;;7.50;2.60;;;20.60;48.50;;;;;;6186911;28;20033;-69
2021/11/28 15:29:09;;;;;;;7.63;2.50;;;20.60;47.50;;;;;;6192939;28;20030;-73
2021/11/28 15:32:10;;;;;;;11.40;2.70;;;20.60;47.90;;;;;;6197550;28;20057;-71
2021/11/28 15:35:11;;;;;;;5.68;2.17;;;20.60;47.30;;;;;;6193134;28;20057;-70
2021/11/28 15:38:11;;;;;;;7.20;2.58;;;20.50;47.00;;;;;;6194097;28;20142;-71
2021/11/28 15:41:12;;;;;;;11.65;3.50;;;20.50;46.00;;;;;;6193453;28;20715;-70
2021/11/28 15:44:13;;;;;;;8.88;3.28;;;20.60;44.60;;;;;;6232641;28;20458;-71
2021/11/28 15:47:14;;;;;;;8.93;3.25;;;20.60;44.90;;;;;;6217617;28;20030;-71
2021/11/28 15:50:17;;;;;;;9.88;3.28;;;20.60;44.60;;;;;;6217995;28;20518;-71
2021/11/28 15:53:17;;;;;;;14.75;3.50;;;20.60;43.90;;;;;;6218190;28;20363;-71
2021/11/28 15:56:18;;;;;;;13.63;3.10;;;20.60;43.10;;;;;;6218034;28;20081;-72